Time;durP1;ratioP1;P1;durP2;ratioP2;P2;SDS_P1;SDS_P2;PMS_P1;PMS_P2;Temp;Humidity;BMP_temperature;BMP_pressure;BME280_temperature;BME280_humidity;BME280_pressure;Samples;Min_cycle;Max_cycle;Signal;HPM_P1;HPM_P2
2022/03/12 00:00:48;;;;;;;20.63;12.97;;;;;;;9.73;39.90;101199.50;5048938;28;20086;-81
2022/03/12 00:03:14;;;;;;;21.23;12.80;;;;;;;9.73;40.07;101202.22;5047342;28;20064;-82
2022/03/12 00:05:53;;;;;;;20.17;12.10;;;;;;;9.73;39.96;101203.03;5048574;28;20036;-81
2022/03/12 00:08:44;;;;;;;20.23;12.40;;;;;;;9.74;40.09;101199.31;5048928;28;20982;-82
2022/03/12 00:11:20;;;;;;;19.83;12.30;;;;;;;9.78;40.16;101205.19;5049370;28;20403;-86
2022/03/12 00:13:46;;;;;;;19.60;12.47;;;;;;;9.74;40.32;101191.19;5048193;28;20043;-83
2022/03/12 00:16:14;;;;;;;22.70;13.17;;;;;;;9.78;40.23;101202.47;5046030;28;20036;-82
2022/03/12 00:18:42;;;;;;;20.73;12.60;;;;;;;9.80;40.20;101203.94;5048502;28;20040;-83
2022/03/12 00:21:10;;;;;;;20.07;12.40;;;;;;;9.81;39.93;101199.34;5056329;28;20057;-76
2022/03/12 00:23:36;;;;;;;21.03;12.93;;;;;;;9.78;40.32;101195.16;5048168;28;20036;-84
2022/03/12 00:26:01;;;;;;;21.37;13.00;;;;;;;9.80;40.09;101209.34;5049132;28;20055;-83
2022/03/12 00:28:27;;;;;;;21.53;12.77;;;;;;;9.81;40.20;101212.88;5061755;28;20037;-82
2022/03/12 00:30:53;;;;;;;20.67;12.57;;;;;;;9.80;40.03;101203.94;5048403;28;20050;-80
2022/03/12 00:33:20;;;;;;;21.67;12.87;;;;;;;9.81;40.50;101218.31;5048233;28;20037;-84
2022/03/12 00:35:47;;;;;;;20.70;12.67;;;;;;;9.75;40.44;101211.81;5046737;28;20028;-84
2022/03/12 00:38:14;;;;;;;20.20;12.90;;;;;;;9.76;40.69;101218.91;5048642;28;20118;-83
2022/03/12 00:40:40;;;;;;;20.63;12.73;;;;;;;9.75;41.08;101227.19;5048241;28;20470;-82
2022/03/12 00:43:06;;;;;;;19.30;12.60;;;;;;;9.74;40.58;101215.53;5046017;28;20036;-81
2022/03/12 00:45:31;;;;;;;19.60;12.37;;;;;;;9.75;41.04;101221.78;5048105;28;21047;-82
2022/03/12 00:47:57;;;;;;;20.80;12.83;;;;;;;9.73;41.51;101224.69;5048488;28;20536;-82
2022/03/12 00:50:22;;;;;;;19.87;12.43;;;;;;;9.77;40.87;101231.38;5062760;28;20052;-79
2022/03/12 00:52:48;;;;;;;22.37;12.63;;;;;;;9.76;41.15;101227.03;5047560;28;20037;-82
2022/03/12 00:55:32;;;;;;;21.43;12.57;;;;;;;9.75;41.03;101221.78;5047822;28;20041;-81
2022/03/12 00:57:57;;;;;;;21.75;13.02;;;;;;;9.74;41.40;101231.78;5060837;28;20036;-84
2022/03/12 01:00:24;;;;;;;18.83;12.17;;;;;;;9.75;41.18;101224.47;5046243;28;20139;-81
2022/03/12 01:02:50;;;;;;;19.77;12.50;;;;;;;9.79;41.29;101225.75;5060859;28;20562;-80
2022/03/12 01:05:19;;;;;;;19.67;12.87;;;;;;;9.78;41.52;101227.66;5062624;28;20048;-82
2022/03/12 01:07:45;;;;;;;20.23;12.73;;;;;;;9.75;42.18;101228.06;5048187;28;20107;-83
2022/03/12 01:10:11;;;;;;;21.07;13.13;;;;;;;9.77;41.93;101238.66;5047132;28;20029;-80
2022/03/12 01:12:37;;;;;;;22.03;12.60;;;;;;;9.78;41.75;101233.06;5047805;28;20033;-81
2022/03/12 01:15:05;;;;;;;22.30;12.83;;;;;;;9.79;42.32;101236.59;5045776;28;20067;-84
2022/03/12 01:17:32;;;;;;;21.00;12.70;;;;;;;9.78;42.16;101235.75;5047002;28;20438;-82
2022/03/12 01:19:58;;;;;;;21.37;12.73;;;;;;;9.77;42.62;101241.38;5045790;28;20040;-81
2022/03/12 01:22:26;;;;;;;20.27;12.37;;;;;;;9.73;42.57;101240.09;5047471;28;20534;-81
2022/03/12 01:24:51;;;;;;;19.93;13.10;;;;;;;9.76;42.78;101240.56;5029293;28;20183;-80
2022/03/12 01:27:17;;;;;;;23.50;13.17;;;;;;;9.79;43.25;101244.72;5047160;28;20032;-82
2022/03/12 01:29:43;;;;;;;20.90;12.77;;;;;;;9.72;44.20;101241.13;5047890;28;20048;-84
2022/03/12 01:32:09;;;;;;;22.77;13.17;;;;;;;9.77;44.09;101246.78;5046137;28;20149;-82
2022/03/12 01:34:35;;;;;;;20.27;12.43;;;;;;;9.75;45.11;101243.44;5046284;28;20171;-84
2022/03/12 01:37:01;;;;;;;20.10;13.00;;;;;;;9.73;45.76;101246.34;5047750;28;20044;-82
2022/03/12 01:39:27;;;;;;;22.10;13.10;;;;;;;9.65;46.25;101238.38;5046791;28;20558;-85
2022/03/12 01:41:54;;;;;;;21.40;13.40;;;;;;;9.65;47.14;101251.06;5047756;28;20036;-83
2022/03/12 01:44:20;;;;;;;21.60;13.30;;;;;;;9.60;47.28;101244.38;5047455;28;20047;-80
2022/03/12 01:46:47;;;;;;;21.77;13.83;;;;;;;9.56;47.30;101261.19;5047113;28;20549;-82
2022/03/12 01:49:17;;;;;;;22.33;13.50;;;;;;;9.53;47.41;101254.28;5045795;28;20080;-81
2022/03/12 01:51:44;;;;;;;20.40;13.13;;;;;;;9.46;48.32;101253.41;5045759;28;20028;-83
2022/03/12 01:54:10;;;;;;;20.33;12.90;;;;;;;9.41;48.52;101256.69;5047078;28;20124;-82
2022/03/12 01:56:38;;;;;;;20.10;12.87;;;;;;;9.38;48.39;101253.53;5047829;28;20020;-82
2022/03/12 01:59:05;;;;;;;23.37;13.80;;;;;;;9.37;48.40;101263.53;5046009;28;20223;-84
2022/03/12 02:01:31;;;;;;;20.77;13.33;;;;;;;9.33;47.98;101262.25;5046490;28;20361;-81
2022/03/12 02:04:00;;;;;;;21.93;13.90;;;;;;;9.33;48.47;101269.50;5046970;28;20048;-80
2022/03/12 02:06:27;;;;;;;21.43;13.17;;;;;;;9.29;48.89;101260.94;5047147;28;20122;-83
2022/03/12 02:08:58;;;;;;;22.13;13.40;;;;;;;9.25;49.18;101265.91;5060187;28;20406;-83
2022/03/12 02:11:28;;;;;;;21.83;13.53;;;;;;;9.23;49.70;101259.00;5049397;28;20056;-81
2022/03/12 02:14:06;;;;;;;21.00;12.87;;;;;;;9.21;49.35;101259.19;5047044;28;20039;-83
2022/03/12 02:16:33;;;;;;;22.63;13.77;;;;;;;9.18;49.29;101243.38;5046419;28;20535;-82
2022/03/12 02:18:58;;;;;;;22.13;13.47;;;;;;;9.11;49.50;101248.72;5043914;28;20061;-81
2022/03/12 02:21:38;;;;;;;21.93;13.60;;;;;;;9.12;49.51;101253.09;5046688;28;20146;-85
2022/03/12 02:24:09;;;;;;;22.87;13.73;;;;;;;9.09;49.60;101256.16;5046134;28;20029;-81
2022/03/12 02:26:36;;;;;;;23.53;13.20;;;;;;;9.08;49.79;101242.84;5047068;28;20678;-82
2022/03/12 02:29:02;;;;;;;21.63;13.40;;;;;;;9.11;49.42;101255.97;5054584;28;20490;-82
2022/03/12 02:31:28;;;;;;;21.70;13.10;;;;;;;9.03;49.82;101258.78;5046845;28;20225;-83
2022/03/12 02:34:01;;;;;;;19.83;12.90;;;;;;;9.06;50.20;101261.13;5046422;28;20032;-82
2022/03/12 02:36:27;;;;;;;22.33;13.77;;;;;;;9.07;50.34;101262.78;5048212;28;20076;-82
2022/03/12 02:38:54;;;;;;;21.97;13.33;;;;;;;9.05;50.43;101259.44;5046780;28;20032;-83
2022/03/12 02:41:22;;;;;;;21.33;13.03;;;;;;;9.05;49.76;101252.16;5047104;28;20041;-83
2022/03/12 02:43:47;;;;;;;22.20;13.90;;;;;;;9.02;49.92;101255.25;5046223;28;20064;-83
2022/03/12 02:46:14;;;;;;;22.50;13.50;;;;;;;9.03;50.00;101256.94;5046709;28;20476;-81
2022/03/12 02:48:40;;;;;;;22.23;13.77;;;;;;;9.05;50.13;101267.56;5047019;28;20037;-83
2022/03/12 02:51:06;;;;;;;21.17;12.90;;;;;;;9.04;49.21;101260.47;5045916;28;20035;-80
2022/03/12 02:53:32;;;;;;;21.73;13.63;;;;;;;9.07;49.57;101274.47;5044133;28;20045;-82
2022/03/12 02:55:58;;;;;;;23.70;13.60;;;;;;;9.04;49.58;101266.69;5047333;28;20141;-83
2022/03/12 02:58:24;;;;;;;21.77;13.67;;;;;;;9.05;49.88;101267.56;5026035;28;20043;-84
2022/03/12 03:00:49;;;;;;;21.00;13.03;;;;;;;9.04;50.03;101274.81;5046208;28;20051;-83
2022/03/12 03:03:15;;;;;;;21.33;13.60;;;;;;;9.04;50.14;101274.00;5045709;28;20079;-82
2022/03/12 03:05:47;;;;;;;20.80;13.20;;;;;;;9.02;50.42;101276.06;5049505;28;20041;-83
2022/03/12 03:08:17;;;;;;;20.90;13.03;;;;;;;9.02;49.89;101276.06;5050817;28;20108;-81
2022/03/12 03:10:45;;;;;;;21.97;13.37;;;;;;;9.01;50.42;101280.59;5050354;28;20036;-82
2022/03/12 03:13:16;;;;;;;20.80;13.40;;;;;;;9.02;50.24;101286.88;5057916;28;20863;-85
2022/03/12 03:15:51;;;;;;;20.87;13.33;;;;;;;9.00;50.39;101286.22;5049820;28;20032;-82
2022/03/12 03:18:18;;;;;;;;;;;;;;;9.05;49.86;101284.59;5050811;28;21410;-85
2022/03/12 03:20:46;;;;;;;22.70;13.83;;;;;;;9.00;50.11;101283.50;5049021;28;19978;-83
2022/03/12 03:23:12;;;;;;;23.03;13.10;;;;;;;9.02;50.14;101285.00;5050210;28;20068;-80
2022/03/12 03:25:39;;;;;;;22.07;13.43;;;;;;;8.95;50.24;101271.41;5049997;28;20159;-83
2022/03/12 03:28:05;;;;;;;25.97;14.03;;;;;;;8.94;50.68;101279.72;5047856;28;21329;-80
2022/03/12 03:30:37;;;;;;;24.60;13.50;;;;;;;8.93;50.62;101284.28;5049774;28;20041;-83
2022/03/12 03:33:06;;;;;;;23.10;13.30;;;;;;;8.88;50.63;101286.72;5057590;28;20041;-82
2022/03/12 03:35:32;;;;;;;22.33;13.80;;;;;;;8.87;51.01;101289.59;5049597;28;20422;-81
2022/03/12 03:37:58;;;;;;;24.13;13.80;;;;;;;8.83;51.20;101294.53;5049917;28;20092;-79
2022/03/12 03:40:24;;;;;;;20.77;12.90;;;;;;;8.83;51.55;101288.31;5049687;28;20622;-83
2022/03/12 03:42:50;;;;;;;21.10;13.03;;;;;;;8.74;52.15;101301.94;5049626;28;20070;-85
2022/03/12 03:45:22;;;;;;;22.20;13.03;;;;;;;8.71;52.31;101302.28;5049771;28;20041;-83
2022/03/12 03:47:49;;;;;;;20.40;12.90;;;;;;;8.69;53.08;101314.31;5046868;28;20143;-82
2022/03/12 03:50:15;;;;;;;20.20;12.60;;;;;;;8.61;53.57;101299.88;5049601;28;20039;-82
2022/03/12 03:52:40;;;;;;;22.40;13.50;;;;;;;8.60;54.22;101311.69;5049520;28;20445;-83
2022/03/12 03:55:06;;;;;;;23.93;13.07;;;;;;;8.57;55.01;101316.66;5049231;28;20028;-83
2022/03/12 03:57:32;;;;;;;20.93;12.13;;;;;;;8.49;55.79;101319.47;5040640;28;20037;-84
2022/03/12 03:59:57;;;;;;;19.13;12.57;;;;;;;8.49;55.88;101317.59;5048850;28;20434;-82
2022/03/12 04:02:23;;;;;;;23.27;13.40;;;;;;;8.40;56.68;101327.59;5049012;28;20065;-82
2022/03/12 04:04:50;;;;;;;21.03;13.17;;;;;;;8.38;56.39;101318.03;5049647;28;20064;-84
2022/03/12 04:07:15;;;;;;;20.70;13.17;;;;;;;8.35;55.84;101319.22;5049475;28;20454;-80
2022/03/12 04:09:41;;;;;;;20.40;13.03;;;;;;;8.28;56.33;101326.38;5046985;28;20036;-81
2022/03/12 04:12:07;;;;;;;21.53;13.20;;;;;;;8.28;55.77;101324.53;5049641;28;20048;-82
2022/03/12 04:14:32;;;;;;;23.23;13.27;;;;;;;8.21;56.04;101331.66;5048782;28;20032;-84
2022/03/12 04:16:58;;;;;;;21.07;13.37;;;;;;;8.14;55.73;101328.03;5046694;28;20481;-83
2022/03/12 04:19:27;;;;;;;23.30;13.40;;;;;;;8.07;55.83;101333.34;5048827;28;20040;-81
2022/03/12 04:21:54;;;;;;;22.90;13.80;;;;;;;8.07;55.75;101348.69;5049208;28;20376;-82
2022/03/12 04:24:24;;;;;;;22.07;13.87;;;;;;;8.02;55.90;101346.53;5048585;28;20115;-82
2022/03/12 04:26:50;;;;;;;22.67;13.90;;;;;;;7.97;56.26;101348.09;5049122;28;20049;-84
2022/03/12 04:29:18;;;;;;;21.50;13.70;;;;;;;7.94;56.96;101347.47;5051197;28;20036;-82
2022/03/12 04:31:47;;;;;;;21.73;13.67;;;;;;;7.93;57.50;101347.66;5048339;28;20037;-83
2022/03/12 04:34:13;;;;;;;22.37;13.67;;;;;;;7.84;58.80;101338.78;5064238;28;20541;-81
2022/03/12 04:36:41;;;;;;;26.43;13.80;;;;;;;7.87;59.20;101343.78;5050667;28;20644;-82
2022/03/12 04:39:10;;;;;;;20.87;12.87;;;;;;;7.87;60.35;101337.56;5048530;28;20036;-82
2022/03/12 04:41:36;;;;;;;21.17;13.07;;;;;;;7.85;60.98;101335.06;5046942;28;20487;-83
2022/03/12 04:44:06;;;;;;;20.83;12.93;;;;;;;7.82;61.38;101339.97;5048955;28;20043;-83
2022/03/12 04:46:32;;;;;;;20.50;12.63;;;;;;;7.80;61.28;101353.63;5048122;28;20040;-82
2022/03/12 04:48:57;;;;;;;20.77;13.37;;;;;;;7.71;61.65;101341.22;5063963;28;20053;-83
2022/03/12 04:51:23;;;;;;;20.90;13.30;;;;;;;7.68;61.58;101344.31;5048339;28;20384;-82
2022/03/12 04:53:48;;;;;;;21.70;13.40;;;;;;;7.62;61.89;101345.88;5062217;28;20892;-83
2022/03/12 04:56:14;;;;;;;23.27;13.83;;;;;;;7.63;61.81;101347.56;5048080;28;20132;-84
2022/03/12 04:58:39;;;;;;;21.23;13.20;;;;;;;7.60;61.68;101348.75;5062784;28;20417;-82
2022/03/12 05:01:07;;;;;;;20.47;13.37;;;;;;;7.64;61.78;101359.16;5080228;27;20164;-82
2022/03/12 05:03:32;;;;;;;20.60;13.50;;;;;;;7.55;61.77;101348.44;5047818;28;20388;-82
2022/03/12 05:06:02;;;;;;;23.23;13.33;;;;;;;7.55;61.92;101348.44;5048405;28;20037;-82
2022/03/12 05:08:28;;;;;;;22.47;13.50;;;;;;;7.53;62.09;101363.94;5047356;28;20035;-82
2022/03/12 05:10:56;;;;;;;22.43;13.63;;;;;;;7.52;62.38;101367.69;5048022;28;20044;-81
2022/03/12 05:13:23;;;;;;;20.57;12.93;;;;;;;7.49;62.54;101368.00;5048441;28;20087;-81
2022/03/12 05:15:55;;;;;;;22.80;13.53;;;;;;;7.48;62.75;101365.50;5047198;28;20063;-81
2022/03/12 05:18:23;;;;;;;20.57;13.10;;;;;;;7.44;63.02;101371.25;5048374;28;20388;-82
2022/03/12 05:20:50;;;;;;;22.77;13.60;;;;;;;7.43;63.77;101366.88;5047602;28;20051;-81
2022/03/12 05:23:17;;;;;;;20.93;13.13;;;;;;;7.40;64.10;101363.72;5047994;28;20464;-83
2022/03/12 05:25:45;;;;;;;19.93;12.63;;;;;;;7.40;64.52;101372.63;5078186;27;20045;-82
2022/03/12 05:28:16;;;;;;;20.43;13.23;;;;;;;7.40;65.55;101363.72;5047434;28;20730;-80
2022/03/12 05:30:46;;;;;;;22.93;13.57;;;;;;;7.41;66.29;101376.16;5046785;28;20044;-83
2022/03/12 05:33:19;;;;;;;21.53;13.00;;;;;;;7.41;67.12;101374.31;5047485;28;20423;-84
2022/03/12 05:35:46;;;;;;;20.27;12.77;;;;;;;7.43;67.63;101390.31;5045704;28;20119;-81
2022/03/12 05:38:13;;;;;;;20.83;12.17;;;;;;;7.43;67.86;101395.72;5047032;28;20029;-82
2022/03/12 05:40:40;;;;;;;19.37;12.87;;;;;;;7.48;68.24;101392.47;5047241;28;20044;-82
2022/03/12 05:43:10;;;;;;;19.63;12.37;;;;;;;7.48;68.26;101393.31;5046972;28;20558;-82
2022/03/12 05:45:37;;;;;;;20.37;12.93;;;;;;;7.47;68.43;101391.63;5046815;28;20032;-84
2022/03/12 05:48:04;;;;;;;20.57;12.63;;;;;;;7.48;68.67;101387.94;5046754;28;20040;-81
2022/03/12 05:50:29;;;;;;;20.73;12.77;;;;;;;7.45;69.09;101388.25;5049100;28;20949;-82
2022/03/12 05:52:55;;;;;;;20.83;13.30;;;;;;;7.41;69.25;101398.59;5060778;28;20067;-83
2022/03/12 05:55:22;;;;;;;20.30;12.70;;;;;;;7.41;69.81;101398.59;5047930;28;20192;-83
2022/03/12 05:57:48;;;;;;;20.93;12.80;;;;;;;7.37;69.95;101404.50;5046752;28;20033;-83
2022/03/12 06:00:15;;;;;;;20.53;12.67;;;;;;;7.32;70.60;101398.81;5046743;28;20035;-84
2022/03/12 06:02:52;;;;;;;20.00;12.50;;;;;;;7.34;70.42;101404.84;5046675;28;20041;-83
2022/03/12 06:05:24;;;;;;;19.27;12.37;;;;;;;7.27;70.92;101407.41;5046747;28;20039;-82
2022/03/12 06:07:50;;;;;;;19.13;12.53;;;;;;;7.24;71.40;101414.00;5046979;28;20033;-83
2022/03/12 06:10:24;;;;;;;19.07;12.13;;;;;;;7.29;71.56;101412.63;5062878;28;20064;-83
2022/03/12 06:12:53;;;;;;;21.17;13.00;;;;;;;7.25;71.88;101412.97;5061214;28;20154;-83
2022/03/12 06:15:21;;;;;;;22.53;12.40;;;;;;;7.26;72.08;101409.28;5046754;28;20112;-84
2022/03/12 06:17:49;;;;;;;21.97;12.67;;;;;;;7.23;72.30;101409.59;5047070;28;20045;-82
2022/03/12 06:20:16;;;;;;;19.83;12.53;;;;;;;7.19;72.61;101402.88;5046579;28;20094;-82
2022/03/12 06:22:41;;;;;;;20.80;12.67;;;;;;;7.23;73.18;101415.00;5046638;28;20053;-81
2022/03/12 06:25:09;;;;;;;18.57;12.13;;;;;;;7.25;73.26;101422.94;5060477;28;20037;-82
2022/03/12 06:27:35;;;;;;;18.63;11.90;;;;;;;7.23;73.74;101420.38;5046434;28;20036;-82
2022/03/12 06:30:03;;;;;;;21.93;12.20;;;;;;;7.27;74.06;101434.38;5047338;28;20032;-83
2022/03/12 06:32:31;;;;;;;20.03;11.87;;;;;;;7.26;73.88;101422.75;5046396;28;20036;-81
2022/03/12 06:34:57;;;;;;;19.87;11.57;;;;;;;7.31;74.53;101433.00;5061831;28;20565;-82
2022/03/12 06:37:23;;;;;;;20.53;11.70;;;;;;;7.33;74.70;101436.38;5049621;28;20033;-84
2022/03/12 06:39:49;;;;;;;21.50;12.47;;;;;;;7.35;74.46;101444.28;5051440;28;21266;-83
2022/03/12 06:42:15;;;;;;;17.70;11.53;;;;;;;7.39;75.05;101434.81;5050747;28;20120;-80
2022/03/12 06:44:43;;;;;;;18.37;11.13;;;;;;;7.39;75.29;101432.94;5050255;28;20133;-84
2022/03/12 06:47:09;;;;;;;19.03;11.47;;;;;;;7.42;75.38;101429.94;5051649;28;20037;-82
2022/03/12 06:49:38;;;;;;;17.67;11.33;;;;;;;7.46;75.05;101433.09;5063993;28;20037;-82
2022/03/12 06:52:06;;;;;;;18.17;11.37;;;;;;;7.49;75.40;101440.00;5049788;28;20459;-83
2022/03/12 06:54:32;;;;;;;16.83;10.90;;;;;;;7.50;75.25;101437.13;5050473;28;20064;-81
2022/03/12 06:56:57;;;;;;;18.20;11.10;;;;;;;7.53;75.25;101439.44;5050213;28;21417;-83
2022/03/12 06:59:23;;;;;;;17.63;10.57;;;;;;;7.56;75.58;101455.28;5053161;28;20048;-84
2022/03/12 07:01:48;;;;;;;19.30;11.50;;;;;;;7.58;75.76;101449.72;5049638;28;20491;-83
2022/03/12 07:04:14;;;;;;;17.00;10.77;;;;;;;7.64;75.69;101450.88;5050315;28;20566;-83
2022/03/12 07:06:40;;;;;;;17.37;10.20;;;;;;;7.70;75.62;101455.56;5050686;28;20041;-83
2022/03/12 07:09:05;;;;;;;16.67;10.83;;;;;;;7.73;75.75;101458.72;5063411;28;20083;-83
2022/03/12 07:11:32;;;;;;;18.17;10.63;;;;;;;7.80;75.71;101458.84;5065703;28;20393;-83
2022/03/12 07:13:58;;;;;;;18.00;10.80;;;;;;;7.84;75.73;101459.34;5050529;28;20055;-84
2022/03/12 07:16:24;;;;;;;17.67;10.67;;;;;;;7.86;75.63;101466.25;5048538;28;20036;-81
2022/03/12 07:18:50;;;;;;;16.77;10.37;;;;;;;7.93;75.49;101475.28;5050884;28;20899;-82
2022/03/12 07:21:15;;;;;;;18.03;10.57;;;;;;;7.93;75.66;101467.19;5050016;28;20471;-82
2022/03/12 07:23:41;;;;;;;16.50;10.40;;;;;;;8.03;75.98;101468.84;5049450;28;20092;-82
2022/03/12 07:26:07;;;;;;;16.27;10.37;;;;;;;8.07;75.70;101468.28;5049964;28;20037;-82
2022/03/12 07:28:32;;;;;;;14.93;9.50;;;;;;;8.13;75.70;101463.19;5050290;28;20487;-81
2022/03/12 07:30:58;;;;;;;16.07;10.07;;;;;;;8.15;75.50;101464.69;5049736;28;20042;-83
2022/03/12 07:33:24;;;;;;;16.47;10.53;;;;;;;8.21;75.58;101480.16;5082194;27;20039;-84
2022/03/12 07:35:49;;;;;;;15.70;10.10;;;;;;;8.24;75.46;101478.94;5048858;28;20084;-82
2022/03/12 07:38:15;;;;;;;15.97;9.63;;;;;;;8.32;75.43;101472.66;5081743;27;20380;-82
2022/03/12 07:40:40;;;;;;;15.83;10.53;;;;;;;8.36;75.33;101490.16;5049613;28;20041;-83
2022/03/12 07:43:06;;;;;;;17.13;10.53;;;;;;;8.44;75.40;101490.97;5051763;28;20102;-83
2022/03/12 07:45:32;;;;;;;16.60;10.50;;;;;;;8.51;74.58;101491.06;5048937;28;20033;-81
2022/03/12 07:47:58;;;;;;;16.07;10.60;;;;;;;8.60;74.98;101495.38;5062652;28;20043;-82
2022/03/12 07:50:26;;;;;;;15.47;10.13;;;;;;;8.66;74.69;101499.22;5048268;28;20040;-78
2022/03/12 07:52:52;;;;;;;16.83;10.07;;;;;;;8.76;74.55;101505.22;5047622;28;20103;-81
2022/03/12 07:55:17;;;;;;;16.80;10.33;;;;;;;8.91;74.75;101517.91;5049565;28;20040;-82
2022/03/12 07:57:43;;;;;;;15.93;10.30;;;;;;;9.04;74.24;101514.56;5063284;28;20553;-82
2022/03/12 08:00:11;;;;;;;17.27;10.63;;;;;;;9.16;73.43;101510.38;5046842;28;20067;-83
2022/03/12 08:02:36;;;;;;;14.43;10.00;;;;;;;9.28;73.05;101508.88;5081400;27;20652;-82
2022/03/12 08:05:02;;;;;;;15.83;10.20;;;;;;;9.32;73.29;101503.13;5049372;28;20048;-82
2022/03/12 08:07:28;;;;;;;15.13;10.03;;;;;;;9.53;73.17;101505.88;5049222;28;20048;-82
2022/03/12 08:09:56;;;;;;;13.13;9.13;;;;;;;9.66;72.26;101516.03;5048771;28;20029;-80
2022/03/12 08:12:32;;;;;;;14.53;9.53;;;;;;;9.74;72.10;101515.91;5049022;28;20032;-83
2022/03/12 08:14:58;;;;;;;14.17;9.57;;;;;;;9.91;71.62;101523.81;5049487;28;20055;-80
2022/03/12 08:17:24;;;;;;;15.67;9.73;;;;;;;10.02;71.15;101527.88;5048740;28;20032;-82
2022/03/12 08:19:51;;;;;;;13.37;9.07;;;;;;;10.11;70.73;101534.88;5048225;28;20379;-81
2022/03/12 08:22:17;;;;;;;14.27;8.83;;;;;;;10.24;70.79;101535.00;5048301;28;20061;-82
2022/03/12 08:24:42;;;;;;;13.13;8.90;;;;;;;10.31;70.06;101535.91;5046285;28;20064;-82
2022/03/12 08:27:08;;;;;;;12.87;8.70;;;;;;;10.24;69.91;101521.47;5048642;28;20024;-80
2022/03/12 08:29:33;;;;;;;13.20;8.70;;;;;;;10.32;69.76;101542.16;5048599;28;20317;-80
2022/03/12 08:31:59;;;;;;;14.10;8.63;;;;;;;10.35;69.81;101543.66;5048216;28;20557;-82
2022/03/12 08:34:24;;;;;;;16.37;9.97;;;;;;;10.48;69.63;101543.81;5062681;28;20533;-82
2022/03/12 08:36:50;;;;;;;12.13;8.43;;;;;;;10.51;69.28;101550.72;5048024;28;20208;-81
2022/03/12 08:39:16;;;;;;;14.33;8.63;;;;;;;10.70;69.24;101554.63;5048859;28;20043;-80
2022/03/12 08:41:43;;;;;;;12.90;8.50;;;;;;;10.85;68.68;101558.09;5048108;28;20043;-81
2022/03/12 08:44:09;;;;;;;13.50;8.77;;;;;;;10.95;67.67;101549.63;5047667;28;20048;-80
2022/03/12 08:47:04;;;;;;;14.27;7.77;;;;;;;11.00;67.75;101560.69;5048490;28;20037;-82
2022/03/12 08:49:29;;;;;;;14.40;8.38;;;;;;;11.08;67.73;101557.88;5055632;28;20045;-83
2022/03/12 08:51:55;;;;;;;12.57;7.87;;;;;;;11.15;67.12;101568.75;5045998;28;20047;-82
2022/03/12 08:54:20;;;;;;;12.10;8.30;;;;;;;11.20;66.94;101555.44;5048599;28;20033;-80
2022/03/12 08:56:46;;;;;;;15.13;8.70;;;;;;;11.11;66.63;101535.78;5047536;28;20029;-80
2022/03/12 08:59:37;;;;;;;14.57;8.27;;;;;;;11.32;66.47;101555.72;5048108;28;20081;-83
2022/03/12 09:02:03;;;;;;;13.37;8.13;;;;;;;11.41;65.94;101556.38;5047496;28;20592;-78
2022/03/12 09:04:28;;;;;;;15.27;8.33;;;;;;;11.46;65.95;101556.63;5047937;28;20513;-79
2022/03/12 09:06:53;;;;;;;14.67;8.17;;;;;;;11.51;65.69;101561.47;5045862;28;20898;-82
2022/03/12 09:09:19;;;;;;;12.57;7.43;;;;;;;11.44;65.37;101543.25;5061858;28;20103;-83
2022/03/12 09:11:44;;;;;;;11.43;7.10;;;;;;;11.28;65.64;101557.97;5047138;28;20047;-80
2022/03/12 09:14:10;;;;;;;13.40;6.97;;;;;;;11.23;66.01;101557.75;5047896;28;21059;-77
2022/03/12 09:16:36;;;;;;;11.13;7.03;;;;;;;11.30;66.80;101566.78;5061382;28;20038;-84
2022/03/12 09:19:03;;;;;;;12.47;7.33;;;;;;;11.35;66.59;101568.06;5047654;28;20599;-83
2022/03/12 09:21:29;;;;;;;12.37;7.53;;;;;;;11.44;66.08;101561.44;5047930;28;20492;-81
2022/03/12 09:23:54;;;;;;;13.40;6.93;;;;;;;11.61;65.88;101568.22;5045295;28;20085;-81
2022/03/12 09:26:22;;;;;;;11.83;7.10;;;;;;;11.73;65.64;101578.50;5047269;28;20043;-82
2022/03/12 09:28:48;;;;;;;10.47;6.43;;;;;;;11.71;65.21;101567.84;5047857;28;20037;-82
2022/03/12 09:31:14;;;;;;;10.83;7.10;;;;;;;11.49;65.47;101581.50;5047554;28;20231;-83
2022/03/12 09:33:39;;;;;;;11.77;7.67;;;;;;;11.48;65.52;101571.69;5046404;28;20225;-81
2022/03/12 09:36:05;;;;;;;11.90;7.30;;;;;;;11.57;65.92;101575.09;5047471;28;20036;-83
2022/03/12 09:38:31;;;;;;;11.30;7.30;;;;;;;11.48;65.83;101573.56;5048656;28;20187;-78
2022/03/12 09:40:56;;;;;;;10.93;6.90;;;;;;;11.50;65.54;101571.47;5046547;28;20033;-83
2022/03/12 09:43:22;;;;;;;12.07;7.23;;;;;;;11.57;66.39;101579.66;5047824;28;20114;-82
2022/03/12 09:45:48;;;;;;;12.43;6.97;;;;;;;11.55;65.74;101574.44;5047033;28;20189;-82
2022/03/12 09:48:13;;;;;;;11.07;7.13;;;;;;;11.65;65.60;101574.91;5047161;28;20401;-81
2022/03/12 09:50:39;;;;;;;12.33;6.63;;;;;;;11.78;64.86;101574.13;5044677;28;20041;-82
2022/03/12 09:53:05;;;;;;;10.33;5.93;;;;;;;11.93;63.73;101576.69;5044272;28;20370;-81
2022/03/12 09:55:30;;;;;;;15.47;6.50;;;;;;;11.97;60.88;101571.72;5043318;28;20128;-78
2022/03/12 09:57:56;;;;;;;8.37;4.33;;;;;;;11.98;60.53;101562.53;5043879;28;20033;-85
2022/03/12 10:00:25;;;;;;;11.03;4.47;;;;;;;12.01;60.49;101569.44;5076483;27;20092;-81
2022/03/12 10:02:51;;;;;;;9.23;4.70;;;;;;;12.02;60.44;101568.41;5042967;28;20068;-78
2022/03/12 10:05:16;;;;;;;13.47;6.17;;;;;;;12.17;60.20;101571.78;5043896;28;20036;-77
2022/03/12 10:07:43;;;;;;;12.83;5.57;;;;;;;12.11;59.24;101586.19;5043861;28;20044;-83
2022/03/12 10:10:17;;;;;;;12.80;4.90;;;;;;;12.13;59.20;101586.81;5043742;28;20061;-78
2022/03/12 10:12:46;;;;;;;;;;;;;;;12.27;59.33;101587.72;5043912;28;20132;-83
2022/03/12 10:15:12;;;;;;;15.03;5.33;;;;;;;12.08;58.34;101592.88;5051030;28;20529;-79
2022/03/12 10:17:38;;;;;;;9.20;3.77;;;;;;;11.96;57.87;101594.50;5043380;28;20315;-79
2022/03/12 10:20:06;;;;;;;10.83;4.67;;;;;;;11.90;58.21;101581.69;5045665;28;20384;-81
2022/03/12 10:22:32;;;;;;;13.13;5.10;;;;;;;11.97;58.40;101594.28;5056762;28;20134;-79
2022/03/12 10:24:58;;;;;;;12.20;4.00;;;;;;;11.96;57.98;101591.78;5043792;28;20139;-78
2022/03/12 10:27:24;;;;;;;10.37;3.90;;;;;;;12.06;58.42;101588.69;5075030;28;20609;-82
2022/03/12 10:29:50;;;;;;;15.47;5.50;;;;;;;12.21;57.56;101580.38;5043690;28;20043;-81
2022/03/12 10:32:24;;;;;;;9.57;4.10;;;;;;;12.30;57.01;101599.00;5041264;28;20032;-84
2022/03/12 10:34:56;;;;;;;;;;;;;;;12.35;56.88;101597.53;5043131;28;20036;-80
2022/03/12 10:37:27;;;;;;;13.27;4.87;;;;;;;12.29;56.44;101589.19;5042997;28;20484;-80
2022/03/12 10:40:13;;;;;;;12.10;4.90;;;;;;;12.35;56.12;101597.53;5046185;28;20032;-80
2022/03/12 10:42:51;;;;;;;13.13;5.53;;;;;;;12.23;57.39;101592.72;5046467;28;20131;-78
2022/03/12 10:45:22;;;;;;;15.60;6.07;;;;;;;12.24;57.25;101599.81;5046751;28;20028;-81
2022/03/12 10:47:51;;;;;;;12.83;4.50;;;;;;;12.34;56.66;101599.41;5046448;28;20230;-82
2022/03/12 10:50:44;;;;;;;10.20;4.10;;;;;;;12.48;55.81;101594.84;5046356;28;20427;-84
2022/03/12 10:53:10;;;;;;;10.07;3.67;;;;;;;12.31;55.30;101595.22;5038295;28;20048;-79
2022/03/12 10:55:40;;;;;;;12.73;4.73;;;;;;;12.29;55.43;101597.34;5044578;28;20041;-78
2022/03/12 10:58:20;;;;;;;10.23;4.53;;;;;;;12.41;55.84;101602.16;5045766;28;20112;-81
2022/03/12 11:00:48;;;;;;;12.00;4.53;;;;;;;12.44;55.37;101582.72;5045626;28;20392;-82
2022/03/12 11:03:17;;;;;;;11.07;4.20;;;;;;;12.37;55.89;101588.13;5045602;28;20369;-80
2022/03/12 11:05:43;;;;;;;13.13;5.67;;;;;;;12.48;55.60;101594.84;5045031;28;20033;-84
2022/03/12 11:08:21;;;;;;;9.27;3.70;;;;;;;12.55;54.75;101593.00;5045940;28;20614;-83
2022/03/12 11:10:50;;;;;;;11.07;4.23;;;;;;;12.52;55.17;101601.53;5045544;28;20045;-84
2022/03/12 11:13:27;;;;;;;9.83;4.00;;;;;;;12.61;54.99;101597.59;5045813;28;21396;-81
2022/03/12 11:16:12;;;;;;;8.97;3.93;;;;;;;12.73;54.49;101596.97;5045772;28;20043;-85
2022/03/12 11:18:39;;;;;;;;;;;;;;;12.78;54.69;101606.19;5045357;28;20403;-78
2022/03/12 11:21:04;;;;;;;6.60;3.17;;;;;;;12.77;54.89;101600.94;5045682;28;19924;-81